createdAt,value
2022-10-26T00:01:24.271Z,100451.69
2022-10-26T00:03:52.331Z,100418.38
2022-10-26T00:06:24.850Z,100463.78
2022-10-26T00:08:53.525Z,100468.69
2022-10-26T00:11:21.597Z,100468.50
2022-10-26T00:13:49.610Z,100466.78
2022-10-26T00:16:19.854Z,100469.34
2022-10-26T00:18:48.114Z,100470.25
2022-10-26T00:21:16.093Z,100467.38
2022-10-26T00:23:45.782Z,100467.38
2022-10-26T00:26:13.704Z,100467.97
2022-10-26T00:28:41.766Z,100466.41
2022-10-26T00:31:14.446Z,100474.19
2022-10-26T00:33:42.464Z,100426.09
2022-10-26T00:36:11.004Z,100469.81
2022-10-26T00:38:39.201Z,100469.78
2022-10-26T00:41:08.380Z,100475.41
2022-10-26T00:43:40.610Z,100472.19
2022-10-26T00:46:16.374Z,100469.78
2022-10-26T00:48:47.704Z,100466.19
2022-10-26T00:51:22.030Z,100451.47
2022-10-26T00:53:50.750Z,100457.03
2022-10-26T00:56:20.223Z,100460.00
2022-10-26T00:58:48.696Z,100444.44
2022-10-26T01:01:16.952Z,100475.69
2022-10-26T01:03:46.814Z,100469.19
2022-10-26T01:06:15.522Z,100470.13
2022-10-26T01:08:45.070Z,100365.03
2022-10-26T01:11:14.162Z,100471.69
2022-10-26T01:13:45.840Z,100459.44
2022-10-26T01:16:35.104Z,100460.09
2022-10-26T01:19:30.406Z,100449.31
2022-10-26T01:22:07.572Z,100425.38
2022-10-26T01:24:59.262Z,100453.44
2022-10-26T01:27:30.765Z,100431.66
2022-10-26T01:30:21.890Z,100448.84
2022-10-26T01:33:04.782Z,100442.22
2022-10-26T01:35:36.820Z,100442.31
2022-10-26T01:38:10.097Z,100437.34
2022-10-26T01:40:44.583Z,100443.75
2022-10-26T01:43:14.788Z,100425.22
2022-10-26T01:45:48.227Z,100434.88
2022-10-26T01:48:20.055Z,100399.22
2022-10-26T01:50:51.110Z,100425.28
2022-10-26T01:53:20.674Z,100427.91
2022-10-26T01:55:51.190Z,100426.22
2022-10-26T01:58:51.021Z,100419.94
2022-10-26T02:01:44.589Z,100414.91
2022-10-26T02:04:27.456Z,100425.41
2022-10-26T02:07:03.344Z,100384.19
2022-10-26T02:09:39.779Z,100417.34
2022-10-26T02:12:15.923Z,100412.22
2022-10-26T02:14:50.490Z,100407.97
2022-10-26T02:17:28.403Z,100400.91
2022-10-26T02:20:00.191Z,100413.03
2022-10-26T02:22:33.252Z,100407.69
2022-10-26T02:25:06.503Z,100390.28
2022-10-26T02:27:38.668Z,100403.53
2022-10-26T02:30:08.318Z,100398.94
2022-10-26T02:32:41.571Z,100404.13
2022-10-26T02:35:10.108Z,100397.94
2022-10-26T02:37:39.742Z,100391.59
2022-10-26T02:40:13.077Z,100386.34
2022-10-26T02:42:43.111Z,100373.28
2022-10-26T02:45:14.353Z,100350.41
2022-10-26T02:47:43.792Z,100377.84
2022-10-26T02:50:12.028Z,100389.28
2022-10-26T02:52:47.566Z,100383.88
2022-10-26T02:55:20.023Z,100345.78
2022-10-26T02:57:52.071Z,100383.91
2022-10-26T03:00:20.525Z,100378.34
2022-10-26T03:02:54.985Z,100369.69
2022-10-26T03:05:26.184Z,100383.31
2022-10-26T03:07:54.241Z,100373.28
2022-10-26T03:10:22.976Z,100371.38
2022-10-26T03:12:51.415Z,100346.19
2022-10-26T03:15:19.570Z,100367.00
2022-10-26T03:17:47.497Z,100349.50
2022-10-26T03:20:17.361Z,100366.03
2022-10-26T03:22:45.191Z,100365.31
2022-10-26T03:25:13.041Z,100368.09
2022-10-26T03:27:40.875Z,100368.91
2022-10-26T03:30:09.765Z,100368.19
2022-10-26T03:32:37.702Z,100345.69
2022-10-26T03:35:06.294Z,100353.78
2022-10-26T03:37:35.461Z,100365.94
2022-10-26T03:40:03.288Z,100346.31
2022-10-26T03:42:34.753Z,100362.94
2022-10-26T03:45:02.674Z,100341.81
2022-10-26T03:47:30.555Z,100347.25
2022-10-26T03:49:58.478Z,100368.53
2022-10-26T03:52:26.511Z,100351.84
2022-10-26T03:54:55.884Z,100361.28
2022-10-26T03:57:23.863Z,100358.41
2022-10-26T03:59:51.771Z,100355.69
2022-10-26T04:02:19.644Z,100358.41
2022-10-26T04:04:47.481Z,100363.09
2022-10-26T04:07:15.283Z,100331.75
2022-10-26T04:09:43.163Z,100356.84
2022-10-26T04:12:12.398Z,100361.22
2022-10-26T04:14:40.342Z,100356.91
2022-10-26T04:17:08.429Z,100341.22
2022-10-26T04:19:36.251Z,100356.00
2022-10-26T04:22:04.107Z,100354.03
2022-10-26T04:24:32.889Z,100353.25
2022-10-26T04:27:00.738Z,100362.19
2022-10-26T04:29:30.086Z,100324.13
2022-10-26T04:31:57.896Z,100362.25
2022-10-26T04:34:25.751Z,100353.00
2022-10-26T04:36:53.706Z,100356.66
2022-10-26T04:39:21.544Z,100358.72
2022-10-26T04:41:49.372Z,100351.78
2022-10-26T04:44:17.247Z,100361.50
2022-10-26T04:46:46.416Z,100359.09
2022-10-26T04:49:14.536Z,100356.50
2022-10-26T04:51:42.903Z,100351.91
2022-10-26T04:54:10.815Z,100350.31
2022-10-26T04:56:38.700Z,100341.34
2022-10-26T04:59:06.550Z,100341.31
2022-10-26T05:01:34.876Z,100141.91
2022-10-26T05:04:04.194Z,100331.16
2022-10-26T05:06:32.203Z,100350.50
2022-10-26T05:09:00.021Z,100353.69
2022-10-26T05:11:27.919Z,100354.66
2022-10-26T05:13:55.796Z,100302.84
2022-10-26T05:16:23.856Z,100285.31
2022-10-26T05:18:51.822Z,100345.63
2022-10-26T05:21:21.062Z,100350.94
2022-10-26T05:23:52.528Z,100347.34
2022-10-26T05:26:21.002Z,100349.94
2022-10-26T05:28:49.130Z,100336.22
2022-10-26T05:31:17.192Z,100346.97
2022-10-26T05:33:45.069Z,100349.56
2022-10-26T05:36:12.910Z,100309.97
2022-10-26T05:38:42.072Z,100312.53
2022-10-26T05:41:09.941Z,100351.47
2022-10-26T05:43:37.877Z,100351.28
2022-10-26T05:46:06.220Z,100310.84
2022-10-26T05:48:34.080Z,100350.28
2022-10-26T05:51:02.581Z,100341.44
2022-10-26T05:53:30.427Z,100351.88
2022-10-26T05:56:00.369Z,100330.88
2022-10-26T05:58:28.670Z,100363.28
2022-10-26T06:01:14.970Z,100349.41
2022-10-26T06:04:02.227Z,100364.25
2022-10-26T06:06:35.459Z,100352.88
2022-10-26T06:09:03.851Z,100367.13
2022-10-26T06:11:34.069Z,100311.09
2022-10-26T06:14:02.126Z,100364.13
2022-10-26T06:16:38.496Z,100355.31
2022-10-26T06:19:21.932Z,100375.56
2022-10-26T06:22:02.275Z,100365.69
2022-10-26T06:24:36.610Z,100378.84
2022-10-26T06:27:19.939Z,100380.47
2022-10-26T06:29:54.665Z,100388.25
2022-10-26T06:32:24.861Z,100385.50
2022-10-26T06:35:01.733Z,100387.19
2022-10-26T06:37:32.764Z,100390.53
2022-10-26T06:40:01.707Z,100389.44
2022-10-26T06:42:32.740Z,100388.53
2022-10-26T06:45:01.082Z,100394.84
2022-10-26T06:47:38.037Z,100391.22
2022-10-26T06:50:13.769Z,100396.59
2022-10-26T06:52:48.792Z,100399.13
2022-10-26T06:55:17.801Z,100403.38
2022-10-26T06:57:47.501Z,100405.75
2022-10-26T07:00:21.121Z,100395.84
2022-10-26T07:02:50.636Z,100380.13
2022-10-26T07:05:18.895Z,100385.00
2022-10-26T07:07:48.799Z,100394.00
2022-10-26T07:10:17.206Z,100381.00
2022-10-26T07:12:48.083Z,100371.03
2022-10-26T07:15:16.184Z,100379.53
2022-10-26T07:17:45.613Z,100385.50
2022-10-26T07:20:14.363Z,100387.28
2022-10-26T07:22:42.925Z,100403.00
2022-10-26T07:25:12.250Z,100402.56
2022-10-26T07:27:40.118Z,100402.22
2022-10-26T07:30:11.001Z,100399.53
2022-10-26T07:32:38.820Z,100385.06
2022-10-26T07:35:07.028Z,100407.91
2022-10-26T07:37:34.859Z,100407.66
2022-10-26T07:40:06.569Z,100411.63
2022-10-26T07:42:36.471Z,100392.56
2022-10-26T07:45:05.677Z,100418.50
2022-10-26T07:47:34.896Z,100414.56
2022-10-26T07:50:03.378Z,100422.28
2022-10-26T07:52:31.285Z,100421.84
2022-10-26T07:54:59.085Z,100416.09
2022-10-26T07:57:26.935Z,100420.03
2022-10-26T07:59:54.967Z,100412.53
2022-10-26T08:02:22.772Z,100410.38
2022-10-26T08:04:52.206Z,100408.88
2022-10-26T08:07:20.176Z,100407.47
2022-10-26T08:09:48.006Z,100397.31
2022-10-26T08:12:16.629Z,100403.69
2022-10-26T08:14:44.751Z,100399.63
2022-10-26T08:17:12.704Z,100406.28
2022-10-26T08:19:40.465Z,100414.97
2022-10-26T08:22:10.123Z,100415.66
2022-10-26T08:24:38.296Z,100413.09
2022-10-26T08:27:06.201Z,100403.72
2022-10-26T08:29:33.983Z,100419.56
2022-10-26T08:32:01.830Z,100416.63
2022-10-26T08:34:29.892Z,100410.09
2022-10-26T08:36:57.766Z,100376.59
2022-10-26T08:39:28.648Z,100402.03
2022-10-26T08:42:03.724Z,100394.56
2022-10-26T08:44:38.632Z,100362.63
2022-10-26T08:47:11.995Z,100405.50
2022-10-26T08:49:47.389Z,100397.22
2022-10-26T08:52:20.414Z,100374.56
2022-10-26T08:54:53.141Z,100391.06
2022-10-26T08:57:26.942Z,100407.47
2022-10-26T09:00:00.168Z,100408.75
2022-10-26T09:02:28.173Z,100404.94
2022-10-26T09:04:56.513Z,100400.59
2022-10-26T09:07:49.763Z,100397.47
2022-10-26T09:10:51.533Z,100398.84
2022-10-26T09:13:29.199Z,100394.19
2022-10-26T09:16:05.344Z,100402.94
2022-10-26T09:21:38.076Z,100406.13
2022-10-26T09:24:14.510Z,100408.44
2022-10-26T09:26:54.530Z,100417.56
2022-10-26T09:29:26.394Z,100417.56
2022-10-26T09:31:59.378Z,100423.94
2022-10-26T09:34:32.504Z,100418.56
2022-10-26T09:37:00.374Z,100382.78
2022-10-26T09:39:37.729Z,100420.38
2022-10-26T09:42:17.395Z,100413.88
2022-10-26T09:44:51.774Z,100416.34
2022-10-26T09:47:32.696Z,100420.28
2022-10-26T09:50:07.743Z,100425.06
2022-10-26T09:52:35.669Z,100405.00
2022-10-26T09:55:03.548Z,100421.88
2022-10-26T09:57:33.242Z,100434.38
2022-10-26T10:00:01.208Z,100430.88
2022-10-26T10:02:37.057Z,100442.41
2022-10-26T10:05:27.463Z,100442.47
2022-10-26T10:08:18.410Z,100439.94
2022-10-26T10:10:58.003Z,100439.31
2022-10-26T10:13:29.319Z,100437.09
2022-10-26T10:16:05.324Z,100453.28
2022-10-26T10:18:34.214Z,100447.53
2022-10-26T10:21:02.367Z,100441.97
2022-10-26T10:23:32.938Z,100437.84
2022-10-26T10:26:07.000Z,100440.22
2022-10-26T10:28:36.407Z,100405.03
2022-10-26T10:31:07.060Z,100323.84
2022-10-26T10:33:37.911Z,100441.91
2022-10-26T10:36:09.681Z,100437.34
2022-10-26T10:38:40.348Z,100439.06
2022-10-26T10:41:17.986Z,100432.38
2022-10-26T10:43:50.164Z,100428.63
2022-10-26T10:46:24.079Z,100431.31
2022-10-26T10:48:57.091Z,100421.75
2022-10-26T10:51:26.805Z,100405.13
2022-10-26T10:53:56.853Z,100402.59
2022-10-26T10:56:39.389Z,100431.41
2022-10-26T10:59:26.933Z,100367.50
2022-10-26T11:02:07.948Z,100435.75
2022-10-26T11:04:55.743Z,100441.69
2022-10-26T11:07:26.325Z,100441.69
2022-10-26T11:09:55.518Z,100437.44
2022-10-26T11:12:28.580Z,100442.03
2022-10-26T11:15:02.621Z,100441.50
2022-10-26T11:17:34.635Z,100440.97
2022-10-26T11:20:10.076Z,100433.03
2022-10-26T11:22:44.699Z,100444.28
2022-10-26T11:25:17.419Z,100433.53
2022-10-26T11:27:50.655Z,100451.59
2022-10-26T11:30:23.005Z,100436.31
2022-10-26T11:32:55.295Z,100420.69
2022-10-26T11:35:28.900Z,100450.56
2022-10-26T11:38:02.818Z,100453.94
2022-10-26T11:40:37.961Z,100446.13
2022-10-26T11:43:16.018Z,100445.34
2022-10-26T11:45:47.134Z,100451.81
2022-10-26T11:48:20.713Z,100457.63
2022-10-26T11:50:52.391Z,100434.34
2022-10-26T11:53:25.832Z,100438.09
2022-10-26T11:55:55.661Z,100447.72
2022-10-26T11:58:25.979Z,100457.91
2022-10-26T12:00:57.738Z,100452.78
2022-10-26T12:03:29.673Z,100471.13
2022-10-26T12:05:57.803Z,100424.78
2022-10-26T12:08:31.100Z,100463.66
2022-10-26T12:13:41.335Z,100458.31
2022-10-26T12:16:21.956Z,100461.91
2022-10-26T12:18:56.577Z,100471.97
2022-10-26T12:21:28.736Z,100466.75
2022-10-26T12:23:59.001Z,100464.06
2022-10-26T12:26:54.501Z,100472.25
2022-10-26T12:29:46.695Z,100456.84
2022-10-26T12:32:51.476Z,100468.22
2022-10-26T12:35:41.631Z,100475.31
2022-10-26T12:39:06.573Z,100477.22
2022-10-26T12:41:39.371Z,100476.94
2022-10-26T12:44:35.195Z,100479.28
2022-10-26T12:47:03.183Z,100479.97
2022-10-26T12:50:00.842Z,100478.44
2022-10-26T12:52:42.724Z,100398.00
2022-10-26T12:55:42.911Z,100484.50
2022-10-26T12:58:38.299Z,100478.78
2022-10-26T13:01:24.755Z,100467.00
2022-10-26T13:04:03.076Z,100468.59
2022-10-26T13:06:47.316Z,100481.88
2022-10-26T13:09:21.551Z,100480.47
2022-10-26T13:11:51.185Z,100483.91
2022-10-26T13:14:25.341Z,100482.84
2022-10-26T13:16:54.129Z,100479.28
2022-10-26T13:19:27.536Z,100441.13
2022-10-26T13:21:59.702Z,100468.34
2022-10-26T13:24:31.585Z,100465.72
2022-10-26T13:27:41.592Z,100480.56
2022-10-26T13:30:38.626Z,100495.56
2022-10-26T13:33:14.822Z,100489.16
2022-10-26T13:35:44.301Z,100493.66
2022-10-26T13:38:14.087Z,100491.13
2022-10-26T13:40:44.690Z,100487.44
2022-10-26T13:43:20.064Z,100480.47
2022-10-26T13:45:55.440Z,100498.59
2022-10-26T13:48:32.801Z,100463.09
2022-10-26T13:51:03.927Z,100474.41
2022-10-26T13:53:41.390Z,100500.84
2022-10-26T13:56:19.256Z,100506.22
2022-10-26T13:58:51.638Z,100511.28
2022-10-26T14:01:23.085Z,100514.38
2022-10-26T14:03:51.812Z,100517.22
2022-10-26T14:06:27.297Z,100516.00
2022-10-26T14:08:59.289Z,100520.84
2022-10-26T14:11:35.218Z,100512.78
2022-10-26T14:14:04.879Z,100489.91
2022-10-26T14:16:34.533Z,100519.00
2022-10-26T14:19:02.616Z,100520.84
2022-10-26T14:21:31.083Z,100520.00
2022-10-26T14:24:00.221Z,100509.84
2022-10-26T14:26:31.517Z,100445.84
2022-10-26T14:29:01.272Z,100491.19
2022-10-26T14:31:31.011Z,100526.47
2022-10-26T14:34:01.575Z,100527.53
2022-10-26T14:36:34.024Z,100517.84
2022-10-26T14:39:06.563Z,100520.34
2022-10-26T14:41:37.375Z,100524.03
2022-10-26T14:44:05.749Z,100515.00
2022-10-26T14:46:36.393Z,100532.38
2022-10-26T14:49:05.291Z,100537.31
2022-10-26T14:51:36.802Z,100519.38
2022-10-26T14:54:05.789Z,100536.44
2022-10-26T14:56:41.810Z,100538.69
2022-10-26T14:59:19.774Z,100533.63
2022-10-26T15:01:50.920Z,100530.72
2022-10-26T15:04:30.824Z,100525.03
2022-10-26T15:07:18.421Z,100543.44
2022-10-26T15:09:47.561Z,100542.59
2022-10-26T15:12:32.738Z,100532.06
2022-10-26T15:15:11.687Z,100548.88
2022-10-26T15:17:42.794Z,100552.53
2022-10-26T15:20:17.735Z,100560.63
2022-10-26T15:22:51.653Z,100541.13
2022-10-26T15:25:22.999Z,100566.75
2022-10-26T15:27:52.865Z,100570.84
2022-10-26T15:30:25.126Z,100571.56
2022-10-26T15:32:53.716Z,100569.91
2022-10-26T15:35:28.735Z,100553.97
2022-10-26T15:37:58.241Z,100577.22
2022-10-26T15:40:29.017Z,100585.06
2022-10-26T15:43:01.803Z,100483.06
2022-10-26T15:45:33.163Z,100536.19
2022-10-26T15:48:21.163Z,100593.72
2022-10-26T15:50:49.028Z,100571.50
2022-10-26T15:53:21.354Z,100596.81
2022-10-26T15:55:49.702Z,100590.97
2022-10-26T15:58:19.181Z,100591.69
2022-10-26T16:00:47.613Z,100586.75
2022-10-26T16:03:18.764Z,100593.19
2022-10-26T16:05:47.125Z,100594.03
2022-10-26T16:08:18.400Z,100587.91
2022-10-26T16:10:48.561Z,100600.66
2022-10-26T16:13:18.550Z,100611.56
2022-10-26T16:15:46.489Z,100593.75
2022-10-26T16:18:14.697Z,100621.91
2022-10-26T16:20:42.674Z,100608.81
2022-10-26T16:23:10.533Z,100623.16
2022-10-26T16:25:43.777Z,100621.78
2022-10-26T16:28:13.838Z,100626.09
2022-10-26T16:30:43.167Z,100614.94
2022-10-26T16:33:11.020Z,100627.66
2022-10-26T16:35:38.887Z,100597.53
2022-10-26T16:38:07.046Z,100639.47
2022-10-26T16:40:35.398Z,100640.69
2022-10-26T16:43:03.236Z,100643.75
2022-10-26T16:45:31.221Z,100652.91
2022-10-26T16:48:00.480Z,100625.84
2022-10-26T16:50:29.281Z,100642.09
2022-10-26T16:52:58.153Z,100653.94
2022-10-26T16:55:26.072Z,100663.31
2022-10-26T16:57:54.256Z,100638.53
2022-10-26T17:00:22.461Z,100670.53
2022-10-26T17:02:50.306Z,100678.31
2022-10-26T17:05:19.667Z,100678.59
2022-10-26T17:07:48.442Z,100676.94
2022-10-26T17:10:16.811Z,100680.75
2022-10-26T17:12:44.712Z,100695.34
2022-10-26T17:15:15.913Z,100691.13
2022-10-26T17:17:46.814Z,100689.44
2022-10-26T17:20:15.000Z,100702.13
2022-10-26T17:22:44.208Z,100703.03
2022-10-26T17:25:12.209Z,100694.03
2022-10-26T17:27:44.825Z,100714.78
2022-10-26T17:30:15.608Z,100720.69
2022-10-26T17:32:43.732Z,100729.78
2022-10-26T17:35:11.885Z,100733.53
2022-10-26T17:37:40.909Z,100736.41
2022-10-26T17:40:11.420Z,100740.97
2022-10-26T17:42:40.372Z,100738.09
2022-10-26T17:45:09.723Z,100751.72
2022-10-26T17:47:37.648Z,100750.94
2022-10-26T17:50:06.456Z,100724.91
2022-10-26T17:52:34.452Z,100768.22
2022-10-26T17:55:03.013Z,100771.22
2022-10-26T17:57:33.743Z,100774.00
2022-10-26T18:00:01.671Z,100770.91
2022-10-26T18:02:29.962Z,100779.84
2022-10-26T18:04:58.010Z,100779.91
2022-10-26T18:07:26.090Z,100770.47
2022-10-26T18:09:54.149Z,100719.78
2022-10-26T18:12:22.144Z,100795.09
2022-10-26T18:14:51.508Z,100797.19
2022-10-26T18:17:19.437Z,100805.47
2022-10-26T18:19:47.407Z,100813.66
2022-10-26T18:22:15.275Z,100814.75
2022-10-26T18:24:43.355Z,100824.63
2022-10-26T18:27:11.418Z,100811.66
2022-10-26T18:29:39.951Z,100812.66
2022-10-26T18:32:12.323Z,100826.66
2022-10-26T18:34:40.192Z,100834.00
2022-10-26T18:37:08.384Z,100829.69
2022-10-26T18:39:36.273Z,100836.84
2022-10-26T18:42:04.223Z,100847.44
2022-10-26T18:44:32.501Z,100852.31
2022-10-26T18:47:00.330Z,100855.19
2022-10-26T18:49:29.937Z,100809.81
2022-10-26T18:51:58.184Z,100845.81
2022-10-26T18:54:28.319Z,100861.69
2022-10-26T18:56:58.945Z,100847.00
2022-10-26T18:59:26.883Z,100868.53
2022-10-26T19:01:54.910Z,100860.41
2022-10-26T19:04:23.247Z,100869.44
2022-10-26T19:06:52.565Z,100874.91
2022-10-26T19:09:20.971Z,100866.97
2022-10-26T19:11:48.869Z,100853.63
2022-10-26T19:14:16.823Z,100879.09
2022-10-26T19:16:46.695Z,100884.63
2022-10-26T19:19:15.568Z,100863.25
2022-10-26T19:21:43.936Z,100858.44
2022-10-26T19:24:16.054Z,100887.81
2022-10-26T19:26:44.525Z,100899.41
2022-10-26T19:29:15.411Z,100896.59
2022-10-26T19:31:44.475Z,100907.28
2022-10-26T19:34:13.601Z,100903.63
2022-10-26T19:36:44.878Z,100900.88
2022-10-26T19:39:15.432Z,100908.88
2022-10-26T19:41:43.694Z,100909.22
2022-10-26T19:44:14.090Z,100899.59
2022-10-26T19:46:43.224Z,100905.88
2022-10-26T19:49:12.440Z,100919.09
2022-10-26T19:51:40.758Z,100916.34
2022-10-26T19:54:08.625Z,100901.59
2022-10-26T19:56:38.570Z,100935.22
2022-10-26T19:59:08.028Z,100915.00
2022-10-26T20:01:36.400Z,100873.34
2022-10-26T20:04:05.936Z,100929.53
2022-10-26T20:06:33.850Z,100944.72
2022-10-26T20:09:02.364Z,100905.25
2022-10-26T20:11:32.119Z,100944.06
2022-10-26T20:14:01.735Z,100944.38
2022-10-26T20:16:29.627Z,100951.44
2022-10-26T20:18:57.503Z,100973.16
2022-10-26T20:21:25.441Z,100932.50
2022-10-26T20:23:53.349Z,100945.91
2022-10-26T20:26:22.556Z,100973.94
2022-10-26T20:28:52.094Z,100951.34
2022-10-26T20:31:21.357Z,100979.44
2022-10-26T20:33:51.750Z,100915.34
2022-10-26T20:36:19.799Z,100981.72
2022-10-26T20:38:48.262Z,100988.81
2022-10-26T20:41:16.875Z,100981.66
2022-10-26T20:43:45.363Z,100982.47
2022-10-26T20:46:22.250Z,100995.91
2022-10-26T20:48:52.737Z,100995.75
2022-10-26T20:51:26.439Z,100956.97
2022-10-26T20:54:06.446Z,100994.16
2022-10-26T20:56:35.390Z,100984.47
2022-10-26T20:59:04.975Z,100982.94
2022-10-26T21:01:35.225Z,101009.53
2022-10-26T21:04:05.306Z,100986.75
2022-10-26T21:06:39.874Z,101007.00
2022-10-26T21:09:08.891Z,100997.38
2022-10-26T21:11:37.160Z,101009.81
2022-10-26T21:14:06.378Z,101011.88
2022-10-26T21:16:34.240Z,101006.78
2022-10-26T21:19:04.949Z,100993.06
2022-10-26T21:21:34.267Z,101013.69
2022-10-26T21:24:02.576Z,101015.63
2022-10-26T21:26:30.492Z,101022.13
2022-10-26T21:28:58.254Z,100997.66
2022-10-26T21:31:26.122Z,101014.44
2022-10-26T21:33:54.012Z,101025.84
2022-10-26T21:36:22.290Z,101030.44
2022-10-26T21:38:51.860Z,101008.56
2022-10-26T21:41:21.343Z,101031.59
2022-10-26T21:43:59.299Z,101025.16
2022-10-26T21:46:37.927Z,101013.78
2022-10-26T21:49:05.903Z,101035.16
2022-10-26T21:51:34.904Z,101034.47
2022-10-26T21:54:04.408Z,101039.84
2022-10-26T21:56:32.426Z,101038.28
2022-10-26T21:59:01.434Z,101045.56
2022-10-26T22:01:29.544Z,101051.69
2022-10-26T22:03:57.634Z,101049.88
2022-10-26T22:06:25.963Z,101055.13
2022-10-26T22:08:54.351Z,101031.34
2022-10-26T22:11:25.091Z,101053.28
2022-10-26T22:13:54.196Z,101053.00
2022-10-26T22:16:24.479Z,101049.53
2022-10-26T22:18:52.684Z,101046.97
2022-10-26T22:21:21.879Z,101048.91
2022-10-26T22:23:49.696Z,101052.59
2022-10-26T22:26:19.839Z,101057.25
2022-10-26T22:28:51.731Z,101047.59
2022-10-26T22:31:22.060Z,101050.94
2022-10-26T22:33:52.530Z,101057.19
2022-10-26T22:36:20.424Z,101055.38
2022-10-26T22:38:49.704Z,101062.75
2022-10-26T22:41:18.330Z,101063.66
2022-10-26T22:43:46.646Z,101054.66
2022-10-26T22:46:17.912Z,101046.78
2022-10-26T22:48:46.311Z,101051.91
2022-10-26T22:51:16.160Z,101059.00
2022-10-26T22:53:45.740Z,101051.56
2022-10-26T22:56:15.020Z,101056.81
2022-10-26T22:58:42.864Z,101058.34
2022-10-26T23:01:14.614Z,101031.47
2022-10-26T23:03:44.737Z,101054.53
2022-10-26T23:06:15.708Z,101067.72
2022-10-26T23:08:43.976Z,101069.53
2022-10-26T23:11:14.018Z,101061.59
2022-10-26T23:13:42.426Z,101064.63
2022-10-26T23:16:12.811Z,101047.72
2022-10-26T23:18:41.309Z,101069.72
2022-10-26T23:21:12.237Z,101063.69
2022-10-26T23:23:40.944Z,101050.38
2022-10-26T23:26:12.088Z,101029.31
2022-10-26T23:28:41.464Z,101076.78
2022-10-26T23:31:14.568Z,101083.09
2022-10-26T23:33:42.495Z,101084.03
2022-10-26T23:36:12.265Z,101088.47
2022-10-26T23:38:40.107Z,101093.03
2022-10-26T23:41:10.752Z,101085.56
2022-10-26T23:43:41.238Z,101089.00
2022-10-26T23:46:09.127Z,101098.66
2022-10-26T23:48:37.015Z,101106.78
2022-10-26T23:51:05.203Z,101098.75
2022-10-26T23:53:34.510Z,101108.59
2022-10-26T23:56:02.293Z,101105.16
2022-10-26T23:58:30.163Z,101106.97
